createdAt,value
2018-12-20T00:01:25.123Z,70.60
2018-12-20T00:03:58.827Z,70.60
2018-12-20T00:06:32.784Z,70.70
2018-12-20T00:09:08.050Z,70.70
2018-12-20T00:11:42.408Z,71.00
2018-12-20T00:14:16.529Z,71.10
2018-12-20T00:16:54.151Z,71.40
2018-12-20T00:19:29.888Z,71.30
2018-12-20T00:22:04.266Z,72.20
2018-12-20T00:24:40.181Z,71.50
2018-12-20T00:27:14.060Z,71.60
2018-12-20T00:29:50.149Z,71.70
2018-12-20T00:32:24.011Z,71.90
2018-12-20T00:34:58.578Z,71.90
2018-12-20T00:37:32.703Z,72.80
2018-12-20T00:40:08.101Z,71.90
2018-12-20T00:42:41.891Z,72.10
2018-12-20T00:45:15.988Z,72.20
2018-12-20T00:47:49.800Z,72.50
2018-12-20T00:50:24.289Z,72.80
2018-12-20T00:52:58.952Z,73.00
2018-12-20T00:55:33.881Z,73.20
2018-12-20T00:58:07.601Z,73.20
2018-12-20T01:00:42.148Z,73.40
2018-12-20T01:03:16.318Z,73.50
2018-12-20T01:05:51.080Z,73.40
2018-12-20T01:08:26.447Z,73.50
2018-12-20T01:11:01.844Z,73.60
2018-12-20T01:13:37.171Z,73.50
2018-12-20T01:16:11.453Z,73.40
2018-12-20T01:18:45.991Z,73.40
2018-12-20T01:21:21.563Z,73.50
2018-12-20T01:23:56.894Z,73.20
2018-12-20T01:26:32.472Z,73.00
2018-12-20T01:29:06.731Z,72.60
2018-12-20T01:31:40.706Z,72.40
2018-12-20T01:34:14.974Z,72.40
2018-12-20T01:36:49.002Z,72.10
2018-12-20T01:39:23.192Z,72.20
2018-12-20T01:41:57.469Z,72.10
2018-12-20T01:44:31.431Z,72.00
2018-12-20T01:47:05.733Z,72.00
2018-12-20T01:49:40.694Z,72.20
2018-12-20T01:52:15.692Z,72.50
2018-12-20T01:55:10.350Z,72.50
2018-12-20T01:57:45.598Z,72.30
2018-12-20T02:00:20.160Z,72.30
2018-12-20T02:02:55.542Z,72.20
2018-12-20T02:05:30.093Z,71.80
2018-12-20T02:08:07.036Z,71.60
2018-12-20T02:10:43.064Z,71.40
2018-12-20T02:13:17.285Z,71.20
2018-12-20T02:15:51.604Z,71.00
2018-12-20T02:18:27.472Z,71.00
2018-12-20T02:21:01.211Z,71.00
2018-12-20T02:23:35.942Z,71.00
2018-12-20T02:26:10.602Z,71.10
2018-12-20T02:28:45.540Z,70.80
2018-12-20T02:31:21.859Z,70.80
2018-12-20T02:33:57.299Z,70.10
2018-12-20T02:36:43.634Z,69.60
2018-12-20T02:39:18.366Z,69.10
2018-12-20T02:41:53.119Z,69.10
2018-12-20T02:44:27.316Z,69.50
2018-12-20T02:47:21.258Z,69.40
2018-12-20T02:49:56.706Z,69.60
2018-12-20T02:52:31.891Z,69.30
2018-12-20T02:55:06.027Z,69.10
2018-12-20T02:57:40.009Z,68.70
2018-12-20T03:00:14.033Z,68.90
2018-12-20T03:02:48.313Z,68.70
2018-12-20T03:05:25.327Z,68.60
2018-12-20T03:07:59.603Z,68.20
2018-12-20T03:10:34.438Z,67.30
2018-12-20T03:13:10.106Z,66.40
2018-12-20T03:15:53.316Z,66.70
2018-12-20T03:18:28.579Z,67.30
2018-12-20T03:21:04.510Z,68.20
2018-12-20T03:23:42.312Z,67.90
2018-12-20T03:26:17.537Z,68.10
2018-12-20T03:28:52.544Z,68.20
2018-12-20T03:31:28.429Z,68.50
2018-12-20T03:34:02.780Z,68.70
2018-12-20T03:36:36.974Z,68.90
2018-12-20T03:39:13.348Z,69.10
2018-12-20T03:41:47.860Z,69.20
2018-12-20T03:44:22.373Z,69.30
2018-12-20T03:46:56.598Z,69.20
2018-12-20T03:49:31.181Z,69.10
2018-12-20T03:52:06.135Z,69.20
2018-12-20T03:54:41.042Z,69.20
2018-12-20T03:57:16.163Z,69.00
2018-12-20T03:59:50.592Z,68.90
2018-12-20T04:02:27.521Z,68.90
2018-12-20T04:05:01.570Z,68.50
2018-12-20T04:07:35.418Z,68.40
2018-12-20T04:10:10.999Z,68.50
2018-12-20T04:12:45.406Z,68.50
2018-12-20T04:15:19.875Z,68.50
2018-12-20T04:17:54.188Z,68.40
2018-12-20T04:20:28.872Z,68.40
2018-12-20T04:23:03.064Z,68.20
2018-12-20T04:25:39.390Z,67.90
2018-12-20T04:28:15.894Z,67.30
2018-12-20T04:30:50.175Z,67.00
2018-12-20T04:33:24.541Z,67.30
2018-12-20T04:35:59.652Z,66.80
2018-12-20T04:38:33.845Z,66.70
2018-12-20T04:41:08.468Z,66.90
2018-12-20T04:43:42.120Z,66.20
2018-12-20T04:46:16.300Z,66.70
2018-12-20T04:48:50.775Z,66.80
2018-12-20T04:51:25.175Z,66.90
2018-12-20T04:53:59.489Z,67.00
2018-12-20T04:56:33.238Z,66.70
2018-12-20T04:59:07.812Z,66.80
2018-12-20T05:01:41.407Z,65.20
2018-12-20T05:04:15.458Z,64.90
2018-12-20T05:06:49.973Z,65.20
2018-12-20T05:09:55.770Z,64.50
2018-12-20T05:12:31.607Z,64.10
2018-12-20T05:15:13.540Z,64.10
2018-12-20T05:17:47.382Z,64.30
2018-12-20T05:20:21.757Z,63.70
2018-12-20T05:22:55.774Z,63.30
2018-12-20T05:25:30.181Z,62.60
2018-12-20T05:28:04.149Z,62.70
2018-12-20T05:30:38.864Z,62.10
2018-12-20T05:33:12.648Z,60.90
2018-12-20T05:35:46.895Z,60.00
2018-12-20T05:38:21.403Z,60.30
2018-12-20T05:40:55.669Z,61.30
2018-12-20T05:43:31.211Z,61.70
2018-12-20T05:46:06.333Z,62.10
2018-12-20T05:49:12.929Z,61.40
2018-12-20T05:51:47.658Z,61.90
2018-12-20T05:54:53.846Z,62.20
2018-12-20T05:57:28.598Z,61.60
2018-12-20T06:00:02.657Z,61.80
2018-12-20T06:02:37.819Z,61.50
2018-12-20T06:05:16.311Z,60.80
2018-12-20T06:07:50.656Z,60.00
2018-12-20T06:10:25.935Z,60.20
2018-12-20T06:13:33.850Z,59.60
2018-12-20T06:16:13.072Z,59.40
2018-12-20T06:21:26.208Z,59.10
2018-12-20T06:23:59.814Z,57.70
2018-12-20T06:26:33.659Z,58.40
2018-12-20T06:29:09.267Z,57.70
2018-12-20T06:36:44.693Z,57.20
2018-12-20T06:39:18.668Z,56.70
2018-12-20T06:41:52.416Z,55.20
2018-12-20T06:44:58.410Z,55.30
2018-12-20T06:47:32.855Z,54.80
2018-12-20T06:50:07.837Z,55.40
2018-12-20T06:52:41.901Z,55.70
2018-12-20T06:55:15.704Z,55.50
2018-12-20T06:57:49.327Z,55.70
2018-12-20T07:00:24.927Z,55.70
2018-12-20T07:03:00.559Z,55.90
2018-12-20T07:05:35.498Z,55.80
2018-12-20T07:08:09.531Z,55.80
2018-12-20T07:10:44.288Z,55.90
2018-12-20T07:13:50.884Z,56.30
2018-12-20T07:16:29.419Z,56.30
2018-12-20T07:19:02.348Z,56.40
2018-12-20T07:21:36.732Z,56.20
2018-12-20T07:24:11.137Z,55.60
2018-12-20T07:26:45.283Z,55.70
2018-12-20T07:29:19.978Z,55.80
2018-12-20T07:31:54.177Z,55.50
2018-12-20T07:34:28.035Z,55.00
2018-12-20T07:37:33.695Z,54.80
2018-12-20T07:40:08.590Z,55.00
2018-12-20T07:43:15.309Z,54.70
2018-12-20T07:45:50.648Z,55.20
2018-12-20T07:48:57.821Z,54.90
2018-12-20T07:51:32.331Z,54.10
2018-12-20T07:54:06.260Z,54.30
2018-12-20T07:56:40.545Z,54.10
2018-12-20T07:59:14.777Z,54.20
2018-12-20T08:02:13.074Z,54.50
2018-12-20T08:04:47.066Z,54.60
2018-12-20T08:07:22.181Z,53.30
2018-12-20T08:09:56.163Z,53.20
2018-12-20T08:12:42.473Z,53.70
2018-12-20T08:15:16.720Z,54.00
2018-12-20T08:17:58.576Z,54.70
2018-12-20T08:20:35.802Z,55.40
2018-12-20T08:23:11.342Z,55.60
2018-12-20T08:25:48.301Z,55.70
2018-12-20T08:28:22.397Z,55.70
2018-12-20T08:30:56.274Z,55.90
2018-12-20T08:33:31.141Z,55.90
2018-12-20T08:36:05.984Z,55.80
2018-12-20T08:38:40.907Z,55.90
2018-12-20T08:41:14.836Z,56.50
2018-12-20T08:43:48.930Z,55.30
2018-12-20T08:46:22.582Z,54.80
2018-12-20T08:48:57.248Z,54.30
2018-12-20T08:51:32.572Z,54.30
2018-12-20T08:54:06.815Z,54.40
2018-12-20T08:56:41.147Z,54.70
2018-12-20T08:59:14.927Z,54.50
2018-12-20T09:01:49.490Z,55.00
2018-12-20T09:04:23.552Z,54.30
2018-12-20T09:06:57.917Z,53.80
2018-12-20T09:09:33.324Z,54.10
2018-12-20T09:12:07.305Z,53.50
2018-12-20T09:14:41.231Z,53.50
2018-12-20T09:17:17.821Z,53.40
2018-12-20T09:19:52.069Z,53.40
2018-12-20T09:22:27.215Z,53.30
2018-12-20T09:25:01.029Z,54.00
2018-12-20T09:27:34.997Z,54.30
2018-12-20T09:30:09.055Z,53.70
2018-12-20T09:32:43.170Z,53.80
2018-12-20T09:35:18.222Z,53.80
2018-12-20T09:37:52.487Z,54.40
2018-12-20T09:40:27.151Z,54.80
2018-12-20T09:43:13.191Z,55.50
2018-12-20T09:45:47.153Z,55.20
2018-12-20T09:48:23.248Z,55.70
2018-12-20T09:53:41.968Z,55.10
2018-12-20T09:56:15.742Z,54.80
2018-12-20T09:59:02.008Z,54.70
2018-12-20T10:01:36.141Z,54.60
2018-12-20T10:04:09.971Z,55.00
2018-12-20T10:06:44.077Z,55.30
2018-12-20T10:09:17.859Z,55.50
2018-12-20T10:11:52.578Z,55.60
2018-12-20T10:14:27.028Z,55.70
2018-12-20T10:17:01.650Z,56.00
2018-12-20T10:19:36.505Z,56.00
2018-12-20T10:22:12.139Z,56.00
2018-12-20T10:24:46.840Z,56.10
2018-12-20T10:27:22.224Z,56.00
2018-12-20T10:29:56.892Z,56.30
2018-12-20T10:32:31.867Z,56.30
2018-12-20T10:35:06.982Z,56.40
2018-12-20T10:37:43.348Z,56.50
2018-12-20T10:40:17.710Z,56.10
2018-12-20T10:42:52.202Z,56.70
2018-12-20T10:45:28.170Z,57.00
2018-12-20T10:48:02.693Z,57.10
2018-12-20T10:50:38.358Z,57.30
2018-12-20T10:53:13.617Z,57.40
2018-12-20T10:55:48.959Z,57.40
2018-12-20T10:58:24.420Z,57.80
2018-12-20T11:01:03.001Z,58.30
2018-12-20T11:03:42.105Z,58.70
2018-12-20T11:06:21.030Z,58.90
2018-12-20T11:09:34.360Z,59.30
2018-12-20T11:12:11.502Z,59.30
2018-12-20T11:14:46.051Z,59.60
2018-12-20T11:17:22.014Z,59.90
2018-12-20T11:19:57.461Z,60.10
2018-12-20T11:22:33.520Z,60.50
2018-12-20T11:25:08.444Z,60.80
2018-12-20T11:27:57.768Z,61.20
2018-12-20T11:30:35.441Z,61.30
2018-12-20T11:33:12.024Z,61.50
2018-12-20T11:35:47.024Z,61.60
2018-12-20T11:38:23.909Z,61.90
2018-12-20T11:41:00.318Z,62.10
2018-12-20T11:44:06.228Z,62.20
2018-12-20T11:47:12.487Z,62.30
2018-12-20T11:50:10.150Z,62.80
2018-12-20T11:52:45.898Z,62.80
2018-12-20T11:55:21.552Z,62.90
2018-12-20T11:57:57.162Z,62.70
2018-12-20T12:00:37.940Z,62.90
2018-12-20T12:03:14.048Z,63.10
2018-12-20T12:05:49.877Z,63.10
2018-12-20T12:08:24.270Z,63.20
2018-12-20T12:10:59.503Z,63.40
2018-12-20T12:13:35.878Z,63.30
2018-12-20T12:16:10.336Z,63.40
2018-12-20T12:18:45.009Z,63.40
2018-12-20T12:21:19.840Z,63.30
2018-12-20T12:24:11.103Z,63.20
2018-12-20T12:26:45.471Z,63.40
2018-12-20T12:29:21.235Z,63.50
2018-12-20T12:32:19.831Z,63.70
2018-12-20T12:34:54.300Z,63.80
2018-12-20T12:37:30.435Z,63.70
2018-12-20T12:40:05.493Z,63.80
2018-12-20T12:42:41.490Z,63.90
2018-12-20T12:45:17.910Z,63.90
2018-12-20T12:48:25.200Z,63.90
2018-12-20T12:51:00.111Z,63.90
2018-12-20T12:54:00.551Z,63.90
2018-12-20T12:56:36.199Z,64.10
2018-12-20T12:59:10.797Z,64.30
2018-12-20T13:01:45.723Z,64.60
2018-12-20T13:04:51.794Z,64.70
2018-12-20T13:07:58.112Z,64.80
2018-12-20T13:10:34.238Z,64.90
2018-12-20T13:13:09.300Z,65.10
2018-12-20T13:15:43.947Z,65.50
2018-12-20T13:18:18.851Z,65.80
2018-12-20T13:20:53.118Z,65.70
2018-12-20T13:23:28.250Z,66.00
2018-12-20T13:26:03.950Z,66.10
2018-12-20T13:28:37.995Z,66.30
2018-12-20T13:31:13.264Z,66.40
2018-12-20T13:33:48.817Z,66.40
2018-12-20T13:36:22.871Z,66.60
2018-12-20T13:38:57.687Z,66.70
2018-12-20T13:41:34.500Z,66.70
2018-12-20T13:44:09.990Z,66.90
2018-12-20T13:46:44.705Z,66.90
2018-12-20T13:49:19.097Z,66.90
2018-12-20T13:51:52.911Z,67.00
2018-12-20T13:54:52.142Z,67.00
2018-12-20T13:57:26.326Z,67.20
2018-12-20T14:00:00.783Z,67.30
2018-12-20T14:02:35.032Z,67.60
2018-12-20T14:05:10.814Z,67.80
2018-12-20T14:07:46.010Z,67.90
2018-12-20T14:10:20.305Z,67.90
2018-12-20T14:12:54.353Z,68.10
2018-12-20T14:15:28.583Z,69.10
2018-12-20T14:18:03.768Z,68.40
2018-12-20T14:20:38.192Z,68.30
2018-12-20T14:23:16.460Z,69.10
2018-12-20T14:25:50.892Z,68.70
2018-12-20T14:28:24.279Z,68.80
2018-12-20T14:30:59.276Z,68.80
2018-12-20T14:33:34.245Z,69.00
2018-12-20T14:36:10.173Z,69.10
2018-12-20T14:38:45.644Z,69.30
2018-12-20T14:41:21.366Z,69.40
2018-12-20T14:43:55.544Z,69.60
2018-12-20T14:46:30.252Z,69.70
2018-12-20T14:49:04.266Z,69.90
2018-12-20T14:51:39.314Z,70.00
2018-12-20T14:54:21.580Z,70.20
2018-12-20T14:56:59.734Z,71.20
2018-12-20T14:59:33.916Z,70.40
2018-12-20T15:02:08.059Z,70.50
2018-12-20T15:04:42.276Z,70.70
2018-12-20T15:07:16.739Z,70.80
2018-12-20T15:10:07.583Z,70.90
2018-12-20T15:12:41.499Z,71.00
2018-12-20T15:15:15.874Z,71.90
2018-12-20T15:17:51.002Z,71.20
2018-12-20T15:20:24.919Z,71.20
2018-12-20T15:22:59.971Z,71.30
2018-12-20T15:25:34.186Z,71.40
2018-12-20T15:28:09.789Z,71.40
2018-12-20T15:30:44.068Z,71.40
2018-12-20T15:33:29.118Z,71.40
2018-12-20T15:36:03.133Z,71.50
2018-12-20T15:38:36.764Z,71.50
2018-12-20T15:41:10.763Z,71.60
2018-12-20T15:43:44.605Z,71.60
2018-12-20T15:46:19.206Z,72.40
2018-12-20T15:48:56.422Z,71.50
2018-12-20T15:51:31.185Z,71.50
2018-12-20T15:54:05.098Z,71.50
2018-12-20T15:56:39.604Z,71.50
2018-12-20T15:59:13.913Z,71.40
2018-12-20T16:01:47.996Z,71.40
2018-12-20T16:04:22.463Z,71.40
2018-12-20T16:06:56.372Z,71.40
2018-12-20T16:09:34.756Z,71.40
2018-12-20T16:12:08.569Z,71.30
2018-12-20T16:14:43.238Z,71.40
2018-12-20T16:17:16.979Z,71.20
2018-12-20T16:19:51.251Z,71.40
2018-12-20T16:22:25.346Z,71.30
2018-12-20T16:25:00.047Z,71.20
2018-12-20T16:27:34.149Z,71.20
2018-12-20T16:30:08.346Z,71.40
2018-12-20T16:32:42.171Z,71.40
2018-12-20T16:35:17.083Z,71.40
2018-12-20T16:37:59.026Z,71.30
2018-12-20T16:40:32.669Z,71.40
2018-12-20T16:43:06.218Z,71.50
2018-12-20T16:45:41.108Z,71.60
2018-12-20T16:48:18.546Z,71.60
2018-12-20T16:50:52.715Z,71.60
2018-12-20T16:53:26.802Z,71.50
2018-12-20T16:56:02.125Z,71.60
2018-12-20T16:58:37.293Z,71.80
2018-12-20T17:01:11.344Z,71.80
2018-12-20T17:03:45.191Z,71.90
2018-12-20T17:06:19.073Z,72.90
2018-12-20T17:08:52.940Z,72.20
2018-12-20T17:11:27.038Z,72.10
2018-12-20T17:14:01.093Z,72.30
2018-12-20T17:16:34.971Z,72.00
2018-12-20T17:19:08.797Z,72.30
2018-12-20T17:21:43.404Z,72.40
2018-12-20T17:24:17.272Z,72.30
2018-12-20T17:26:52.588Z,72.30
2018-12-20T17:29:26.901Z,72.30
2018-12-20T17:32:00.644Z,72.40
2018-12-20T17:34:35.794Z,72.50
2018-12-20T17:37:42.142Z,72.20
2018-12-20T17:40:17.169Z,72.10
2018-12-20T17:42:51.016Z,72.00
2018-12-20T17:45:25.216Z,72.00
2018-12-20T17:48:00.287Z,71.90
2018-12-20T17:50:35.932Z,71.90
2018-12-20T17:53:10.116Z,71.90
2018-12-20T17:55:44.892Z,71.90
2018-12-20T17:58:19.093Z,71.80
2018-12-20T18:00:53.497Z,71.70
2018-12-20T18:03:28.168Z,71.70
2018-12-20T18:06:02.008Z,71.70
2018-12-20T18:08:36.028Z,71.60
2018-12-20T18:11:10.338Z,71.50
2018-12-20T18:13:46.776Z,71.70
2018-12-20T18:16:21.118Z,71.60
2018-12-20T18:18:55.061Z,72.40
2018-12-20T18:21:35.489Z,71.60
2018-12-20T18:24:11.242Z,71.60
2018-12-20T18:26:45.320Z,71.70
2018-12-20T18:29:19.196Z,71.50
2018-12-20T18:31:56.581Z,71.50
2018-12-20T18:34:31.471Z,71.50
2018-12-20T18:37:05.817Z,71.50
2018-12-20T18:39:39.989Z,71.60
2018-12-20T18:42:14.645Z,71.50
2018-12-20T18:44:51.065Z,71.60
2018-12-20T18:47:26.475Z,71.70
2018-12-20T18:50:00.116Z,71.80
2018-12-20T18:52:35.081Z,71.80
2018-12-20T18:55:08.806Z,71.90
2018-12-20T18:57:42.709Z,72.00
2018-12-20T19:00:16.584Z,72.10
2018-12-20T19:02:51.027Z,72.10
2018-12-20T19:05:25.664Z,72.00
2018-12-20T19:07:59.845Z,72.20
2018-12-20T19:10:33.451Z,72.30
2018-12-20T19:13:07.780Z,72.20
2018-12-20T19:15:41.562Z,72.30
2018-12-20T19:18:15.518Z,72.30
2018-12-20T19:20:52.086Z,72.30
2018-12-20T19:23:26.291Z,72.30
2018-12-20T19:26:00.736Z,72.30
2018-12-20T19:28:34.931Z,72.30
2018-12-20T19:31:08.784Z,72.30
2018-12-20T19:33:42.883Z,72.40
2018-12-20T19:36:18.346Z,72.50
2018-12-20T19:39:05.616Z,72.50
2018-12-20T19:41:39.419Z,72.50
2018-12-20T19:44:13.438Z,72.50
2018-12-20T19:46:48.983Z,72.60
2018-12-20T19:49:24.684Z,72.60
2018-12-20T19:51:58.911Z,72.60
2018-12-20T19:54:34.899Z,72.60
2018-12-20T19:57:40.929Z,72.70
2018-12-20T20:00:17.865Z,72.70
2018-12-20T20:02:52.243Z,72.70
2018-12-20T20:05:27.306Z,72.80
2018-12-20T20:08:01.231Z,72.80
2018-12-20T20:10:36.534Z,72.80
2018-12-20T20:13:42.384Z,72.90
2018-12-20T20:16:16.562Z,73.00
2018-12-20T20:19:21.075Z,73.10
2018-12-20T20:21:58.449Z,73.10
2018-12-20T20:24:35.195Z,73.20
2018-12-20T20:27:12.890Z,73.40
2018-12-20T20:29:47.439Z,73.40
2018-12-20T20:32:22.052Z,73.50
2018-12-20T20:34:58.819Z,73.50
2018-12-20T20:37:32.740Z,73.50
2018-12-20T20:40:08.023Z,73.50
2018-12-20T20:42:41.946Z,73.60
2018-12-20T20:45:16.424Z,73.40
2018-12-20T20:47:50.680Z,73.50
2018-12-20T20:50:25.026Z,73.70
2018-12-20T20:52:58.807Z,73.70
2018-12-20T20:55:33.157Z,73.90
2018-12-20T20:58:08.664Z,73.90
2018-12-20T21:00:43.244Z,74.10
2018-12-20T21:03:17.508Z,74.10
2018-12-20T21:05:51.589Z,74.30
2018-12-20T21:08:26.147Z,74.30
2018-12-20T21:11:00.179Z,74.30
2018-12-20T21:13:35.147Z,74.40
2018-12-20T21:16:09.459Z,74.50
2018-12-20T21:18:43.362Z,75.30
2018-12-20T21:21:18.167Z,74.60
2018-12-20T21:23:53.357Z,74.70
2018-12-20T21:26:27.534Z,74.80
2018-12-20T21:29:02.113Z,74.80
2018-12-20T21:31:35.871Z,74.80
2018-12-20T21:34:10.070Z,74.90
2018-12-20T21:36:44.495Z,74.90
2018-12-20T21:39:19.645Z,74.90
2018-12-20T21:41:53.917Z,75.00
2018-12-20T21:44:59.418Z,75.00
2018-12-20T21:47:33.723Z,75.00
2018-12-20T21:50:08.899Z,74.90
2018-12-20T21:52:43.481Z,75.20
2018-12-20T21:55:17.580Z,75.00
2018-12-20T21:57:52.689Z,75.10
2018-12-20T22:00:26.979Z,75.20
2018-12-20T22:03:01.504Z,75.20
2018-12-20T22:05:35.520Z,75.10
2018-12-20T22:08:09.843Z,75.00
2018-12-20T22:10:45.110Z,75.10
2018-12-20T22:13:22.040Z,75.20
2018-12-20T22:15:55.999Z,75.20
2018-12-20T22:18:30.178Z,75.30
2018-12-20T22:21:04.637Z,75.40
2018-12-20T22:23:40.809Z,75.30
2018-12-20T22:26:15.792Z,75.30
2018-12-20T22:28:56.942Z,75.30
2018-12-20T22:31:31.982Z,76.00
2018-12-20T22:34:06.061Z,75.30
2018-12-20T22:36:56.244Z,75.40
2018-12-20T22:39:30.351Z,75.60
2018-12-20T22:42:04.552Z,75.30
2018-12-20T22:44:38.746Z,75.50
2018-12-20T22:47:12.841Z,75.60
2018-12-20T22:50:06.714Z,75.60
2018-12-20T22:52:40.513Z,75.50
2018-12-20T22:55:14.702Z,75.60
2018-12-20T22:57:49.872Z,75.70
2018-12-20T23:00:24.349Z,75.70
2018-12-20T23:02:58.538Z,75.70
2018-12-20T23:05:32.840Z,75.90
2018-12-20T23:08:06.713Z,76.00
2018-12-20T23:10:40.933Z,76.10
2018-12-20T23:13:14.727Z,76.00
2018-12-20T23:15:49.226Z,76.00
2018-12-20T23:18:23.561Z,76.20
2018-12-20T23:21:04.908Z,76.20
2018-12-20T23:23:34.366Z,76.30
2018-12-20T23:26:08.350Z,76.40
2018-12-20T23:28:42.734Z,76.30
2018-12-20T23:31:17.191Z,76.40
2018-12-20T23:33:52.240Z,76.70
2018-12-20T23:36:26.160Z,76.50
2018-12-20T23:39:00.287Z,76.50
2018-12-20T23:41:35.226Z,76.60
2018-12-20T23:44:09.174Z,76.70
2018-12-20T23:46:43.536Z,76.50
2018-12-20T23:49:17.659Z,76.70
2018-12-20T23:51:51.742Z,76.50
2018-12-20T23:54:25.949Z,76.60
2018-12-20T23:56:59.936Z,76.70
2018-12-20T23:59:34.393Z,76.70
